Time;durP1;ratioP1;P1;durP2;ratioP2;P2;SDS_P1;SDS_P2;PMS_P1;PMS_P2;Temp;Humidity;BMP_temperature;BMP_pressure;BME280_temperature;BME280_humidity;BME280_pressure;Samples;Min_cycle;Max_cycle;Signal;HPM_P1;HPM_P2
2021/05/13 00:01:11;;;;;;;;;;;;;;;;;;5074272;28;20007;-67
2021/05/13 00:03:38;;;;;;;;;;;;;;;;;;5071327;28;19964;-69
2021/05/13 00:06:04;;;;;;;;;;;;;;;;;;5073163;28;19928;-69
2021/05/13 00:08:31;;;;;;;;;;;;;;;;;;5072308;28;19924;-68
2021/05/13 00:11:03;;;;;;;;;;;;;;;;;;5071842;28;20009;-69
2021/05/13 00:13:29;;;;;;;;;;;;;;;;;;5074497;28;19931;-68
2021/05/13 00:15:56;;;;;;;;;;;;;;;;;;5082094;28;19932;-69
2021/05/13 00:18:22;;;;;;;;;;;;;;;;;;5083608;28;20019;-68
2021/05/13 00:20:49;;;;;;;;;;;;;;;;;;5069791;28;19932;-69
2021/05/13 00:23:15;;;;;;;;;;;;;;;;;;5068419;28;19977;-69
2021/05/13 00:25:42;;;;;;;;;;;;;;;;;;5064902;28;20218;-69
2021/05/13 00:28:09;;;;;;;;;;;;;;;;;;5064366;28;19925;-69
2021/05/13 00:30:35;;;;;;;;;;;;;;;;;;5064896;28;19925;-69
2021/05/13 00:33:02;;;;;;;;;;;;;;;;;;5067459;28;19932;-69
2021/05/13 00:35:28;;;;;;;;;;;;;;;;;;5065558;28;19924;-69
2021/05/13 00:37:54;;;;;;;;;;;;;;;;;;5068576;28;19938;-69
2021/05/13 00:40:21;;;;;;;;;;;;;;;;;;5064711;28;20284;-69
2021/05/13 00:45:17;;;;;;;;;;;;;;;;;;5025546;28;20416;-65
2021/05/13 00:47:47;;;;;;;;;;;;;;;;;;5029117;28;20051;-65
2021/05/13 00:50:14;;;;;;;;;;;;;;;;;;5024290;28;19933;-66
2021/05/13 00:52:40;;;;;;;;;;;;;;;;;;5028491;28;19929;-65
2021/05/13 00:55:07;;;;;;;;;;;;;;;;;;5007479;28;19930;-66
2021/05/13 00:57:33;;;;;;;;;;;;;;;;;;5007596;28;19926;-66
2021/05/13 01:00:04;;;;;;;;;;;;;;;;;;5008955;28;19925;-65
2021/05/13 01:02:30;;;;;;;;;;;;;;;;;;5007680;28;19929;-65
2021/05/13 01:04:57;;;;;;;;;;;;;;;;;;5009126;28;19929;-66
2021/05/13 01:07:23;;;;;;;;;;;;;;;;;;5006159;28;19925;-65
2021/05/13 01:09:50;;;;;;;;;;;;;;;;;;5006340;28;19932;-66
2021/05/13 01:12:19;;;;;;;;;;;;;;;;;;5008204;28;20440;-66
2021/05/13 01:14:47;;;;;;;;;;;;;;;;;;5008755;28;20336;-65
2021/05/13 01:17:20;;;;;;;;;;;;;;;;;;5008056;28;19938;-67
2021/05/13 01:19:48;;;;;;;;;;;;;;;;;;5004643;28;19925;-65
2021/05/13 01:22:14;;;;;;;;;;;;;;;;;;5008689;28;19943;-66
2021/05/13 01:24:41;;;;;;;;;;;;;;;;;;5008398;28;19932;-66
2021/05/13 01:27:07;;;;;;;;;;;;;;;;;;5008020;28;19925;-67
2021/05/13 01:29:34;;;;;;;;;;;;;;;;;;5008655;28;19932;-64
2021/05/13 01:32:00;;;;;;;;;;;;;;;;;;5006483;28;20405;-66
2021/05/13 01:34:26;;;;;;;;;;;;;;;;;;5008072;28;19925;-66
2021/05/13 01:36:53;;;;;;;;;;;;;;;;;;5008213;28;20343;-65
2021/05/13 01:39:19;;;;;;;;;;;;;;;;;;5009388;28;19926;-64
2021/05/13 01:41:46;;;;;;;;;;;;;;;;;;5007306;28;19934;-65
2021/05/13 01:44:12;;;;;;;;;;;;;;;;;;5010890;28;19925;-66
2021/05/13 01:46:39;;;;;;;;;;;;;;;;;;5008574;28;19925;-66
2021/05/13 01:49:05;;;;;;;;;;;;;;;;;;5012768;28;19925;-66
2021/05/13 01:51:32;;;;;;;;;;;;;;;;;;5011859;28;19925;-66
2021/05/13 01:53:58;;;;;;;;;;;;;;;;;;5011909;28;19926;-65
2021/05/13 01:56:26;;;;;;;;;;;;;;;;;;5012371;28;20412;-66
2021/05/13 01:58:53;;;;;;;;;;;;;;;;;;5011044;28;19925;-66
2021/05/13 02:01:19;;;;;;;;;;;;;;;;;;5011034;28;19925;-66
2021/05/13 02:03:46;;;;;;;;;;;;;;;;;;5011826;28;20019;-65
2021/05/13 02:06:13;;;;;;;;;;;;;;;;;;5011609;28;20437;-65
2021/05/13 02:08:39;;;;;;;;;;;;;;;;;;5012697;28;19956;-65
2021/05/13 02:11:06;;;;;;;;;;;;;;;;;;5007317;28;20104;-66
2021/05/13 02:13:32;;;;;;;;;;;;;;;;;;5010895;28;19929;-66
2021/05/13 02:15:58;;;;;;;;;;;;;;;;;;5011616;28;20316;-66
2021/05/13 02:18:25;;;;;;;;;;;;;;;;;;5012382;28;19925;-65
2021/05/13 02:20:51;;;;;;;;;;;;;;;;;;5010861;28;19940;-66
2021/05/13 02:23:18;;;;;;;;;;;;;;;;;;5011781;28;19945;-67
2021/05/13 02:25:46;;;;;;;;;;;;;;;;;;5011187;28;20008;-66
2021/05/13 02:28:13;;;;;;;;;;;;;;;;;;5012450;28;20321;-66
2021/05/13 02:30:39;;;;;;;;;;;;;;;;;;5010632;28;19932;-65
2021/05/13 02:33:06;;;;;;;;;;;;;;;;;;5010890;28;19983;-66
2021/05/13 02:35:32;;;;;;;;;;;;;;;;;;5012334;28;19940;-66
2021/05/13 02:37:59;;;;;;;;;;;;;;;;;;5010652;28;19929;-66
2021/05/13 02:40:25;;;;;;;;;;;;;;;;;;5010869;28;19932;-64
2021/05/13 02:42:52;;;;;;;;;;;;;;;;;;5011382;28;19944;-66
2021/05/13 02:45:18;;;;;;;;;;;;;;;;;;5005319;28;19969;-66
2021/05/13 02:47:45;;;;;;;;;;;;;;;;;;5004443;28;19925;-66
2021/05/13 02:50:11;;;;;;;;;;;;;;;;;;5006959;28;19980;-66
2021/05/13 02:52:40;;;;;;;;;;;;;;;;;;5010198;28;19933;-65
2021/05/13 02:55:06;;;;;;;;;;;;;;;;;;5009057;28;19934;-66
2021/05/13 02:57:33;;;;;;;;;;;;;;;;;;5012102;28;19931;-66
2021/05/13 03:00:04;;;;;;;;;;;;;;;;;;5009892;28;19965;-66
2021/05/13 03:02:30;;;;;;;;;;;;;;;;;;5009787;28;19930;-66
2021/05/13 03:04:57;;;;;;;;;;;;;;;;;;5011148;28;20020;-66
2021/05/13 03:07:23;;;;;;;;;;;;;;;;;;5009136;28;20011;-66
2021/05/13 03:09:55;;;;;;;;;;;;;;;;;;5010266;28;19933;-64
2021/05/13 03:12:22;;;;;;;;;;;;;;;;;;5010100;28;19925;-65
2021/05/13 03:14:48;;;;;;;;;;;;;;;;;;5009753;28;19932;-66
2021/05/13 03:17:15;;;;;;;;;;;;;;;;;;5007983;28;20254;-65
2021/05/13 03:19:44;;;;;;;;;;;;;;;;;;5010274;28;19986;-66
2021/05/13 03:22:13;;;;;;;;;;;;;;;;;;5009898;28;19939;-66
2021/05/13 03:24:45;;;;;;;;;;;;;;;;;;5010226;28;20028;-65
2021/05/13 03:27:14;;;;;;;;;;;;;;;;;;5010504;28;19968;-66
2021/05/13 03:29:40;;;;;;;;;;;;;;;;;;5007848;28;20055;-65
2021/05/13 03:32:07;;;;;;;;;;;;;;;;;;5011334;28;20024;-65
2021/05/13 03:34:33;;;;;;;;;;;;;;;;;;5010945;28;19932;-65
2021/05/13 03:37:00;;;;;;;;;;;;;;;;;;5010965;28;19944;-66
2021/05/13 03:39:26;;;;;;;;;;;;;;;;;;5010226;28;19926;-66
2021/05/13 03:41:53;;;;;;;;;;;;;;;;;;5009635;28;19931;-67
2021/05/13 03:44:19;;;;;;;;;;;;;;;;;;5010398;28;20040;-66
2021/05/13 03:46:45;;;;;;;;;;;;;;;;;;5011036;28;20404;-65
2021/05/13 03:49:12;;;;;;;;;;;;;;;;;;5009426;28;19926;-63
2021/05/13 03:51:38;;;;;;;;;;;;;;;;;;5005117;28;19952;-65
2021/05/13 03:54:05;;;;;;;;;;;;;;;;;;5006360;28;19925;-65
2021/05/13 03:56:31;;;;;;;;;;;;;;;;;;5009388;28;19964;-66
2021/05/13 03:59:01;;;;;;;;;;;;;;;;;;5007999;28;19997;-65
2021/05/13 04:01:44;;;;;;;;;;;;;;;;;;5009078;28;19925;-66
2021/05/13 04:04:10;;;;;;;;;;;;;;;;;;5009230;28;19933;-65
2021/05/13 04:06:36;;;;;;;;;;;;;;;;;;5008332;28;19956;-66
2021/05/13 04:09:06;;;;;;;;;;;;;;;;;;5008793;28;20440;-65
2021/05/13 04:11:33;;;;;;;;;;;;;;;;;;5009131;28;19926;-66
2021/05/13 04:13:59;;;;;;;;;;;;;;;;;;5009716;28;19926;-66
2021/05/13 04:16:28;;;;;;;;;;;;;;;;;;5008755;28;19929;-66
2021/05/13 04:18:55;;;;;;;;;;;;;;;;;;5006048;28;20373;-66
2021/05/13 04:21:21;;;;;;;;;;;;;;;;;;5009192;28;19929;-67
2021/05/13 04:23:48;;;;;;;;;;;;;;;;;;5008644;28;20400;-66
2021/05/13 04:26:14;;;;;;;;;;;;;;;;;;5008745;28;19977;-66
2021/05/13 04:28:41;;;;;;;;;;;;;;;;;;5008310;28;19925;-66
2021/05/13 04:31:07;;;;;;;;;;;;;;;;;;5009305;28;19932;-67
2021/05/13 04:33:34;;;;;;;;;;;;;;;;;;5008862;28;19933;-66
2021/05/13 04:36:00;;;;;;;;;;;;;;;;;;5009369;28;19933;-66
2021/05/13 04:38:27;;;;;;;;;;;;;;;;;;5008099;28;19936;-66
2021/05/13 04:40:53;;;;;;;;;;;;;;;;;;5004963;28;20301;-66
2021/05/13 04:43:19;;;;;;;;;;;;;;;;;;5007417;28;20385;-66
2021/05/13 04:45:47;;;;;;;;;;;;;;;;;;5006966;28;19967;-67
2021/05/13 04:48:16;;;;;;;;;;;;;;;;;;5008645;28;19925;-66
2021/05/13 04:50:42;;;;;;;;;;;;;;;;;;5007911;28;19933;-67
2021/05/13 04:53:09;;;;;;;;;;;;;;;;;;5008624;28;19933;-67
2021/05/13 04:55:35;;;;;;;;;;;;;;;;;;5008831;28;19930;-65
2021/05/13 04:58:02;;;;;;;;;;;;;;;;;;5008611;28;19972;-66
2021/05/13 05:00:28;;;;;;;;;;;;;;;;;;5007239;28;20317;-66
2021/05/13 05:02:55;;;;;;;;;;;;;;;;;;5008181;28;20373;-65
2021/05/13 05:05:22;;;;;;;;;;;;;;;;;;5006892;28;19940;-66
2021/05/13 05:07:48;;;;;;;;;;;;;;;;;;5009556;28;19925;-66
2021/05/13 05:10:15;;;;;;;;;;;;;;;;;;5007891;28;19925;-66
2021/05/13 05:12:41;;;;;;;;;;;;;;;;;;5007775;28;20409;-66
2021/05/13 05:15:08;;;;;;;;;;;;;;;;;;5008048;28;20382;-66
2021/05/13 05:17:34;;;;;;;;;;;;;;;;;;5009347;28;20282;-66
2021/05/13 05:20:01;;;;;;;;;;;;;;;;;;5011973;28;20305;-66
2021/05/13 05:22:27;;;;;;;;;;;;;;;;;;5012678;28;20478;-66
2021/05/13 05:24:53;;;;;;;;;;;;;;;;;;5011543;28;19936;-67
2021/05/13 05:27:20;;;;;;;;;;;;;;;;;;5012377;28;20214;-66
2021/05/13 05:29:46;;;;;;;;;;;;;;;;;;5010695;28;19932;-66
2021/05/13 05:32:13;;;;;;;;;;;;;;;;;;5009981;28;19925;-65
2021/05/13 05:34:39;;;;;;;;;;;;;;;;;;5011784;28;19925;-67
2021/05/13 05:37:06;;;;;;;;;;;;;;;;;;5011899;28;20543;-67
2021/05/13 05:39:32;;;;;;;;;;;;;;;;;;5011812;28;20313;-67
2021/05/13 05:41:59;;;;;;;;;;;;;;;;;;5012555;28;19926;-66
2021/05/13 05:44:25;;;;;;;;;;;;;;;;;;5011559;28;19955;-65
2021/05/13 05:46:52;;;;;;;;;;;;;;;;;;5011000;28;19925;-66
2021/05/13 05:49:18;;;;;;;;;;;;;;;;;;5012334;28;19929;-66
2021/05/13 05:51:44;;;;;;;;;;;;;;;;;;5012278;28;19956;-65
2021/05/13 05:54:11;;;;;;;;;;;;;;;;;;5011637;28;19937;-66
2021/05/13 05:56:37;;;;;;;;;;;;;;;;;;5012058;28;19925;-67
2021/05/13 05:59:05;;;;;;;;;;;;;;;;;;5011928;28;19945;-64
2021/05/13 06:01:34;;;;;;;;;;;;;;;;;;5011533;28;19933;-68
2021/05/13 06:04:01;;;;;;;;;;;;;;;;;;5010845;28;19926;-67
2021/05/13 06:06:27;;;;;;;;;;;;;;;;;;5011476;28;19933;-67
2021/05/13 06:08:54;;;;;;;;;;;;;;;;;;5011241;28;19976;-67
2021/05/13 06:11:20;;;;;;;;;;;;;;;;;;5011206;28;19941;-65
2021/05/13 06:13:47;;;;;;;;;;;;;;;;;;5012520;28;19979;-65
2021/05/13 06:16:13;;;;;;;;;;;;;;;;;;5010515;28;19926;-67
2021/05/13 06:18:40;;;;;;;;;;;;;;;;;;5011689;28;20360;-64
2021/05/13 06:21:06;;;;;;;;;;;;;;;;;;5009591;28;19982;-65
2021/05/13 06:23:32;;;;;;;;;;;;;;;;;;5011355;28;19959;-66
2021/05/13 06:25:59;;;;;;;;;;;;;;;;;;5011782;28;20420;-68
2021/05/13 06:28:25;;;;;;;;;;;;;;;;;;5010277;28;19925;-66
2021/05/13 06:30:52;;;;;;;;;;;;;;;;;;5008963;28;19932;-64
2021/05/13 06:33:18;;;;;;;;;;;;;;;;;;5012150;28;19980;-67
2021/05/13 06:35:45;;;;;;;;;;;;;;;;;;5011350;28;20410;-68
2021/05/13 06:38:11;;;;;;;;;;;;;;;;;;5010672;28;19932;-67
2021/05/13 06:40:38;;;;;;;;;;;;;;;;;;5009230;28;20208;-66
2021/05/13 06:43:04;;;;;;;;;;;;;;;;;;5009294;28;20351;-65
2021/05/13 06:45:31;;;;;;;;;;;;;;;;;;5085437;22;19924;-71
2021/05/13 06:47:57;;;;;;;;;;;;;;;;;;5083318;28;19924;-70
2021/05/13 06:50:24;;;;;;;;;;;;;;;;;;5075787;28;19935;-69
2021/05/13 06:52:50;;;;;;;;;;;;;;;;;;5078101;28;20412;-69
2021/05/13 06:55:17;;;;;;;;;;;;;;;;;;5067424;28;19931;-70
2021/05/13 06:57:43;;;;;;;;;;;;;;;;;;5053918;28;19947;-70
2021/05/13 07:00:10;;;;;;;;;;;;;;;;;;5067189;28;19931;-70
2021/05/13 07:02:36;;;;;;;;;;;;;;;;;;5064683;28;19947;-71
2021/05/13 07:05:03;;;;;;;;;;;;;;;;;;5063352;28;20013;-71
2021/05/13 07:07:29;;;;;;;;;;;;;;;;;;5067859;28;19924;-70
2021/05/13 07:09:56;;;;;;;;;;;;;;;;;;5061339;28;19924;-71
2021/05/13 07:12:22;;;;;;;;;;;;;;;;;;5059664;28;20398;-70
2021/05/13 07:14:49;;;;;;;;;;;;;;;;;;5066637;28;20007;-71
2021/05/13 07:17:15;;;;;;;;;;;;;;;;;;5061294;28;19952;-69
2021/05/13 07:19:42;;;;;;;;;;;;;;;;;;5064916;28;20019;-71
2021/05/13 07:22:09;;;;;;;;;;;;;;;;;;5064096;28;20307;-71
2021/05/13 07:24:35;;;;;;;;;;;;;;;;;;5065091;28;19929;-73
2021/05/13 07:27:06;;;;;;;;;;;;;;;;;;5062601;28;20311;-70
2021/05/13 07:29:33;;;;;;;;;;;;;;;;;;5053328;28;19932;-69
2021/05/13 07:31:59;;;;;;;;;;;;;;;;;;5058126;28;19967;-71
2021/05/13 07:34:26;;;;;;;;;;;;;;;;;;5063856;28;19954;-69
2021/05/13 07:36:52;;;;;;;;;;;;;;;;;;5059458;28;20339;-69
2021/05/13 07:39:19;;;;;;;;;;;;;;;;;;5061072;28;20059;-72
2021/05/13 07:41:45;;;;;;;;;;;;;;;;;;5059334;28;19973;-70
2021/05/13 07:44:12;;;;;;;;;;;;;;;;;;5059783;28;19937;-72
2021/05/13 07:46:40;;;;;;;;;;;;;;;;;;5064233;28;19944;-71
2021/05/13 07:49:07;;;;;;;;;;;;;;;;;;5056794;28;19925;-71
2021/05/13 07:51:33;;;;;;;;;;;;;;;;;;5061376;28;20023;-70
2021/05/13 07:54:00;;;;;;;;;;;;;;;;;;5066287;28;20400;-71
2021/05/13 07:56:26;;;;;;;;;;;;;;;;;;5061002;28;19924;-70
2021/05/13 07:58:53;;;;;;;;;;;;;;;;;;5059309;28;20364;-69
2021/05/13 08:01:19;;;;;;;;;;;;;;;;;;5059660;28;19931;-70
2021/05/13 08:03:46;;;;;;;;;;;;;;;;;;5062328;28;19933;-71
2021/05/13 08:06:12;;;;;;;;;;;;;;;;;;5061096;28;19968;-70
2021/05/13 08:08:39;;;;;;;;;;;;;;;;;;5066346;28;20452;-69
2021/05/13 08:11:05;;;;;;;;;;;;;;;;;;5057359;28;19932;-70
2021/05/13 08:13:32;;;;;;;;;;;;;;;;;;5058954;28;19930;-70
2021/05/13 08:15:58;;;;;;;;;;;;;;;;;;5064485;28;19932;-70
2021/05/13 08:18:25;;;;;;;;;;;;;;;;;;5055080;28;19981;-69
2021/05/13 08:20:52;;;;;;;;;;;;;;;;;;5057305;28;20100;-70
2021/05/13 08:23:18;;;;;;;;;;;;;;;;;;5062733;28;20336;-70
2021/05/13 08:25:45;;;;;;;;;;;;;;;;;;5064850;28;19959;-70
2021/05/13 08:28:11;;;;;;;;;;;;;;;;;;5064410;28;20427;-69
2021/05/13 08:30:38;;;;;;;;;;;;;;;;;;5063977;28;19928;-70
2021/05/13 08:33:05;;;;;;;;;;;;;;;;;;5063605;28;19988;-70
2021/05/13 08:35:31;;;;;;;;;;;;;;;;;;5063338;28;19924;-71
2021/05/13 08:37:58;;;;;;;;;;;;;;;;;;5064660;28;20372;-70
2021/05/13 08:40:24;;;;;;;;;;;;;;;;;;5062032;28;19977;-68
2021/05/13 08:42:51;;;;;;;;;;;;;;;;;;5058231;28;19964;-71
2021/05/13 08:45:17;;;;;;;;;;;;;;;;;;5059458;28;20307;-72
2021/05/13 08:47:45;;;;;;;;;;;;;;;;;;5064183;28;19979;-69
2021/05/13 08:50:12;;;;;;;;;;;;;;;;;;5058842;28;19948;-71
2021/05/13 08:52:38;;;;;;;;;;;;;;;;;;5065622;28;19924;-71
2021/05/13 08:55:05;;;;;;;;;;;;;;;;;;5061929;28;19958;-70
2021/05/13 08:57:32;;;;;;;;;;;;;;;;;;5066509;28;19924;-71
2021/05/13 08:59:58;;;;;;;;;;;;;;;;;;5063421;28;20376;-71
2021/05/13 09:02:27;;;;;;;;;;;;;;;;;;5063403;28;19934;-70
2021/05/13 09:04:54;;;;;;;;;;;;;;;;;;5062030;28;19946;-72
2021/05/13 09:07:22;;;;;;;;;;;;;;;;;;5059434;28;20008;-72
2021/05/13 09:09:48;;;;;;;;;;;;;;;;;;5060193;28;19970;-71
2021/05/13 09:12:15;;;;;;;;;;;;;;;;;;5057179;28;19934;-71
2021/05/13 09:14:41;;;;;;;;;;;;;;;;;;5055493;28;19924;-72
2021/05/13 09:17:08;;;;;;;;;;;;;;;;;;5052090;28;20047;-72
2021/05/13 09:19:34;;;;;;;;;;;;;;;;;;5054594;28;19932;-70
2021/05/13 09:22:01;;;;;;;;;;;;;;;;;;5053682;28;19986;-70
2021/05/13 09:24:27;;;;;;;;;;;;;;;;;;5057896;28;19933;-71
2021/05/13 09:26:54;;;;;;;;;;;;;;;;;;5059114;28;20295;-70
2021/05/13 09:29:20;;;;;;;;;;;;;;;;;;5053583;28;19950;-73
2021/05/13 09:31:47;;;;;;;;;;;;;;;;;;5056635;28;19931;-70
2021/05/13 09:34:15;;;;;;;;;;;;;;;;;;5059482;28;19928;-72
2021/05/13 09:36:42;;;;;;;;;;;;;;;;;;5061992;28;20347;-73
2021/05/13 09:39:09;;;;;;;;;;;;;;;;;;5064265;28;19925;-71
2021/05/13 09:41:35;;;;;;;;;;;;;;;;;;5060822;28;19933;-71
2021/05/13 09:44:02;;;;;;;;;;;;;;;;;;5064135;28;19967;-72
2021/05/13 09:46:28;;;;;;;;;;;;;;;;;;5061416;28;19978;-71
2021/05/13 09:48:55;;;;;;;;;;;;;;;;;;5060188;28;19983;-72
2021/05/13 09:51:21;;;;;;;;;;;;;;;;;;5059837;28;20385;-69
2021/05/13 09:53:48;;;;;;;;;;;;;;;;;;5062117;28;20385;-70
2021/05/13 09:56:14;;;;;;;;;;;;;;;;;;5063943;28;19935;-70
2021/05/13 09:58:41;;;;;;;;;;;;;;;;;;5063312;28;19936;-65
2021/05/13 10:01:07;;;;;;;;;;;;;;;;;;5061323;28;20015;-70
2021/05/13 10:03:34;;;;;;;;;;;;;;;;;;5069241;28;19979;-68
2021/05/13 10:06:00;;;;;;;;;;;;;;;;;;5061620;28;19925;-66
2021/05/13 10:08:27;;;;;;;;;;;;;;;;;;5074744;28;19958;-69
2021/05/13 10:10:53;;;;;;;;;;;;;;;;;;5069840;28;20433;-69
2021/05/13 10:13:20;;;;;;;;;;;;;;;;;;5072412;28;20012;-72
2021/05/13 10:15:46;;;;;;;;;;;;;;;;;;5068246;28;19932;-69
2021/05/13 10:18:13;;;;;;;;;;;;;;;;;;5074079;28;19928;-69
2021/05/13 10:20:39;;;;;;;;;;;;;;;;;;5069451;28;20381;-70
2021/05/13 10:23:06;;;;;;;;;;;;;;;;;;5068164;28;19936;-69
2021/05/13 10:25:34;;;;;;;;;;;;;;;;;;5067366;28;19936;-69
2021/05/13 10:28:00;;;;;;;;;;;;;;;;;;5063588;28;19972;-69
2021/05/13 10:30:27;;;;;;;;;;;;;;;;;;5063978;28;20575;-68
2021/05/13 10:32:53;;;;;;;;;;;;;;;;;;5064194;28;20024;-68
2021/05/13 10:35:20;;;;;;;;;;;;;;;;;;5067254;28;20331;-70
2021/05/13 10:37:50;;;;;;;;;;;;;;;;;;5067502;28;19932;-69
2021/05/13 10:40:20;;;;;;;;;;;;;;;;;;5061070;28;20011;-70
2021/05/13 10:42:48;;;;;;;;;;;;;;;;;;5062943;28;20312;-71
2021/05/13 10:45:14;;;;;;;;;;;;;;;;;;5063777;28;20008;-70
2021/05/13 10:47:42;;;;;;;;;;;;;;;;;;5067192;28;19924;-70
2021/05/13 10:50:09;;;;;;;;;;;;;;;;;;5062392;28;20023;-71
2021/05/13 10:52:35;;;;;;;;;;;;;;;;;;5065131;28;19951;-70
2021/05/13 10:55:02;;;;;;;;;;;;;;;;;;5066097;28;20015;-67
2021/05/13 10:57:28;;;;;;;;;;;;;;;;;;5065690;28;20107;-68
2021/05/13 10:59:54;;;;;;;;;;;;;;;;;;5067241;28;19932;-69
2021/05/13 11:02:21;;;;;;;;;;;;;;;;;;5068791;28;19928;-69
2021/05/13 11:04:47;;;;;;;;;;;;;;;;;;5068804;28;19928;-70
2021/05/13 11:07:14;;;;;;;;;;;;;;;;;;5066788;28;19925;-70
2021/05/13 11:09:42;;;;;;;;;;;;;;;;;;5064558;28;19925;-68
2021/05/13 11:12:09;;;;;;;;;;;;;;;;;;5069320;28;19924;-70
2021/05/13 11:14:35;;;;;;;;;;;;;;;;;;5063357;28;20031;-69
2021/05/13 11:17:04;;;;;;;;;;;;;;;;;;5061835;28;19925;-68
2021/05/13 11:19:31;;;;;;;;;;;;;;;;;;5062222;28;20054;-71
2021/05/13 11:21:57;;;;;;;;;;;;;;;;;;5062842;28;19952;-69
2021/05/13 11:24:24;;;;;;;;;;;;;;;;;;5065297;28;20067;-67
2021/05/13 11:26:51;;;;;;;;;;;;;;;;;;5064515;28;20364;-67
2021/05/13 11:29:17;;;;;;;;;;;;;;;;;;5065072;28;19932;-66
2021/05/13 11:31:44;;;;;;;;;;;;;;;;;;5074066;28;20343;-67
2021/05/13 11:34:10;;;;;;;;;;;;;;;;;;5071664;28;19931;-67
2021/05/13 11:36:36;;;;;;;;;;;;;;;;;;5073655;28;20031;-68
2021/05/13 11:39:07;;;;;;;;;;;;;;;;;;5069106;28;19928;-66
2021/05/13 11:41:33;;;;;;;;;;;;;;;;;;5072795;28;19932;-69
2021/05/13 11:44:00;;;;;;;;;;;;;;;;;;5075587;28;19928;-68
2021/05/13 11:46:27;;;;;;;;;;;;;;;;;;5076822;28;19978;-67
2021/05/13 11:48:53;;;;;;;;;;;;;;;;;;5079989;28;19925;-66
2021/05/13 11:51:20;;;;;;;;;;;;;;;;;;5061234;28;19925;-68
2021/05/13 11:53:46;;;;;;;;;;;;;;;;;;5064802;28;19929;-66
2021/05/13 11:56:13;;;;;;;;;;;;;;;;;;5059331;28;19979;-69
2021/05/13 11:58:41;;;;;;;;;;;;;;;;;;5059378;28;19924;-70
2021/05/13 12:01:08;;;;;;;;;;;;;;;;;;5060564;28;19933;-66
2021/05/13 12:03:34;;;;;;;;;;;;;;;;;;5062959;28;20308;-68
2021/05/13 12:06:01;;;;;;;;;;;;;;;;;;5060744;28;19978;-66
2021/05/13 12:08:27;;;;;;;;;;;;;;;;;;5064895;28;19925;-67
2021/05/13 12:10:54;;;;;;;;;;;;;;;;;;5059217;28;19933;-68
2021/05/13 12:13:20;;;;;;;;;;;;;;;;;;5058808;28;19985;-68
2021/05/13 12:15:47;;;;;;;;;;;;;;;;;;5060687;28;21450;-68
2021/05/13 12:18:13;;;;;;;;;;;;;;;;;;5064951;28;19990;-67
2021/05/13 12:20:40;;;;;;;;;;;;;;;;;;5060331;28;19971;-67
2021/05/13 12:23:06;;;;;;;;;;;;;;;;;;5060688;28;19928;-69
2021/05/13 12:25:33;;;;;;;;;;;;;;;;;;5059661;28;19928;-68
2021/05/13 12:27:59;;;;;;;;;;;;;;;;;;5064047;28;19959;-66
2021/05/13 12:30:26;;;;;;;;;;;;;;;;;;5057372;28;19970;-66
2021/05/13 12:32:52;;;;;;;;;;;;;;;;;;5058787;28;19968;-66
2021/05/13 12:35:19;;;;;;;;;;;;;;;;;;5060247;28;19949;-68
2021/05/13 12:37:45;;;;;;;;;;;;;;;;;;5059373;28;19933;-66
2021/05/13 12:40:14;;;;;;;;;;;;;;;;;;5061464;28;20029;-66
2021/05/13 12:42:40;;;;;;;;;;;;;;;;;;5059565;28;19960;-66
2021/05/13 12:45:07;;;;;;;;;;;;;;;;;;5064773;22;20023;-65
2021/05/13 12:47:33;;;;;;;;;;;;;;;;;;5045268;28;20342;-67
2021/05/13 12:50:00;;;;;;;;;;;;;;;;;;5043978;28;19928;-67
2021/05/13 12:52:26;;;;;;;;;;;;;;;;;;5044215;28;20276;-67
2021/05/13 12:54:53;;;;;;;;;;;;;;;;;;5041846;28;19964;-65
2021/05/13 12:57:20;;;;;;;;;;;;;;;;;;5038507;28;19924;-66
2021/05/13 12:59:46;;;;;;;;;;;;;;;;;;5038962;28;19925;-66
2021/05/13 13:02:13;;;;;;;;;;;;;;;;;;5042286;28;19925;-66
2021/05/13 13:04:39;;;;;;;;;;;;;;;;;;5039625;28;20027;-64
2021/05/13 13:07:06;;;;;;;;;;;;;;;;;;5042565;28;20876;-66
2021/05/13 13:09:32;;;;;;;;;;;;;;;;;;5041022;28;19978;-66
2021/05/13 13:11:59;;;;;;;;;;;;;;;;;;5042652;28;20326;-66
2021/05/13 13:14:29;;;;;;;;;;;;;;;;;;5042574;28;19939;-66
2021/05/13 13:16:56;;;;;;;;;;;;;;;;;;5042788;28;19982;-65
2021/05/13 13:19:23;;;;;;;;;;;;;;;;;;5042292;28;20031;-65
2021/05/13 13:21:49;;;;;;;;;;;;;;;;;;5043585;28;20025;-66
2021/05/13 13:24:16;;;;;;;;;;;;;;;;;;5041891;28;19925;-64
2021/05/13 13:26:46;;;;;;;;;;;;;;;;;;5038383;28;19952;-64
2021/05/13 13:29:13;;;;;;;;;;;;;;;;;;5041808;28;19925;-65
2021/05/13 13:31:40;;;;;;;;;;;;;;;;;;5042068;28;19979;-65
2021/05/13 13:34:06;;;;;;;;;;;;;;;;;;5036912;28;20319;-65
2021/05/13 13:36:33;;;;;;;;;;;;;;;;;;5036944;28;19937;-65
2021/05/13 13:38:59;;;;;;;;;;;;;;;;;;5046468;28;19929;-66
2021/05/13 13:41:26;;;;;;;;;;;;;;;;;;5046913;28;19932;-65
2021/05/13 13:43:52;;;;;;;;;;;;;;;;;;5043150;28;20336;-65
2021/05/13 13:46:19;;;;;;;;;;;;;;;;;;5046207;28;20074;-67
2021/05/13 13:48:45;;;;;;;;;;;;;;;;;;5043424;28;19925;-66
2021/05/13 13:51:12;;;;;;;;;;;;;;;;;;5043905;28;20388;-66
2021/05/13 13:53:39;;;;;;;;;;;;;;;;;;5042989;28;19928;-66
2021/05/13 13:56:05;;;;;;;;;;;;;;;;;;5044130;28;19925;-66
2021/05/13 13:58:32;;;;;;;;;;;;;;;;;;5042704;28;19928;-66
2021/05/13 14:00:58;;;;;;;;;;;;;;;;;;5040794;28;20192;-66
2021/05/13 14:03:25;;;;;;;;;;;;;;;;;;5045649;28;19929;-66
2021/05/13 14:05:51;;;;;;;;;;;;;;;;;;5043938;28;20368;-67
2021/05/13 14:08:18;;;;;;;;;;;;;;;;;;5045417;28;19924;-66
2021/05/13 14:10:46;;;;;;;;;;;;;;;;;;5045913;28;20288;-65
2021/05/13 14:13:13;;;;;;;;;;;;;;;;;;5041969;28;19929;-67
2021/05/13 14:15:39;;;;;;;;;;;;;;;;;;5041715;28;20365;-65
2021/05/13 14:18:06;;;;;;;;;;;;;;;;;;5043198;28;19939;-66
2021/05/13 14:20:32;;;;;;;;;;;;;;;;;;5047298;28;20011;-66
2021/05/13 14:22:59;;;;;;;;;;;;;;;;;;5047559;28;19935;-65
2021/05/13 14:25:25;;;;;;;;;;;;;;;;;;5043487;28;19931;-67
2021/05/13 14:27:52;;;;;;;;;;;;;;;;;;5041802;28;20032;-65
2021/05/13 14:30:18;;;;;;;;;;;;;;;;;;5046205;28;19929;-65
2021/05/13 14:32:46;;;;;;;;;;;;;;;;;;5045832;28;19932;-69
2021/05/13 14:35:12;;;;;;;;;;;;;;;;;;5044609;28;19933;-65
2021/05/13 14:37:39;;;;;;;;;;;;;;;;;;5046370;28;20288;-67
2021/05/13 14:40:06;;;;;;;;;;;;;;;;;;5040645;28;19936;-66
2021/05/13 14:42:32;;;;;;;;;;;;;;;;;;5041313;28;19939;-66
2021/05/13 14:45:03;;;;;;;;;;;;;;;;;;5038086;28;19929;-67
2021/05/13 14:47:29;;;;;;;;;;;;;;;;;;5039037;28;19925;-67
2021/05/13 14:49:56;;;;;;;;;;;;;;;;;;5043711;28;20513;-67
2021/05/13 14:52:22;;;;;;;;;;;;;;;;;;5045220;28;19925;-66
2021/05/13 14:54:49;;;;;;;;;;;;;;;;;;5039173;28;19935;-67
2021/05/13 14:57:15;;;;;;;;;;;;;;;;;;5041268;28;20028;-67
2021/05/13 14:59:42;;;;;;;;;;;;;;;;;;5042044;28;19924;-66
2021/05/13 15:02:11;;;;;;;;;;;;;;;;;;5037213;28;19956;-67
2021/05/13 15:04:37;;;;;;;;;;;;;;;;;;5039280;28;19932;-67
2021/05/13 15:07:04;;;;;;;;;;;;;;;;;;5042431;28;19972;-67
2021/05/13 15:09:30;;;;;;;;;;;;;;;;;;5037952;28;19925;-66
2021/05/13 15:11:57;;;;;;;;;;;;;;;;;;5045204;28;19925;-67
2021/05/13 15:14:23;;;;;;;;;;;;;;;;;;5042113;28;19939;-68
2021/05/13 15:16:50;;;;;;;;;;;;;;;;;;5041549;28;19925;-66
2021/05/13 15:19:16;;;;;;;;;;;;;;;;;;5042558;28;19971;-67
2021/05/13 15:21:43;;;;;;;;;;;;;;;;;;5040857;28;19982;-67
2021/05/13 15:24:12;;;;;;;;;;;;;;;;;;5042327;28;19975;-67
2021/05/13 15:26:39;;;;;;;;;;;;;;;;;;5042074;28;20473;-67
2021/05/13 15:29:05;;;;;;;;;;;;;;;;;;5046000;28;19925;-67
2021/05/13 15:31:32;;;;;;;;;;;;;;;;;;5038711;28;19935;-67
2021/05/13 15:33:58;;;;;;;;;;;;;;;;;;5044565;28;20031;-67
2021/05/13 15:36:25;;;;;;;;;;;;;;;;;;5041968;28;19943;-67
2021/05/13 15:38:51;;;;;;;;;;;;;;;;;;5039831;28;20404;-67
2021/05/13 15:41:18;;;;;;;;;;;;;;;;;;5043058;28;19931;-66
2021/05/13 15:43:46;;;;;;;;;;;;;;;;;;5041668;28;20300;-67
2021/05/13 15:46:12;;;;;;;;;;;;;;;;;;5041837;28;19932;-66
2021/05/13 15:48:39;;;;;;;;;;;;;;;;;;5040370;28;19936;-64
2021/05/13 15:51:05;;;;;;;;;;;;;;;;;;5044634;28;19925;-63
2021/05/13 15:53:32;;;;;;;;;;;;;;;;;;5037188;28;20003;-63
2021/05/13 15:55:59;;;;;;;;;;;;;;;;;;5042641;28;19966;-64
2021/05/13 15:58:25;;;;;;;;;;;;;;;;;;5042441;28;19931;-63
2021/05/13 16:00:52;;;;;;;;;;;;;;;;;;5044551;28;19982;-63
2021/05/13 16:03:18;;;;;;;;;;;;;;;;;;5042032;28;19932;-64
2021/05/13 16:05:45;;;;;;;;;;;;;;;;;;5037666;28;20020;-63
2021/05/13 16:08:11;;;;;;;;;;;;;;;;;;5043424;28;19947;-63
2021/05/13 16:10:41;;;;;;;;;;;;;;;;;;5041014;28;20490;-63
2021/05/13 16:13:19;;;;;;;;;;;;;;;;;;5043822;28;19929;-63
2021/05/13 16:15:46;;;;;;;;;;;;;;;;;;5043792;28;20328;-64
2021/05/13 16:18:12;;;;;;;;;;;;;;;;;;5041942;28;20043;-64
2021/05/13 16:20:38;;;;;;;;;;;;;;;;;;5040686;28;19991;-64
2021/05/13 16:23:05;;;;;;;;;;;;;;;;;;5040481;28;19978;-64
2021/05/13 16:25:31;;;;;;;;;;;;;;;;;;5042216;28;20330;-63
2021/05/13 16:27:58;;;;;;;;;;;;;;;;;;5046292;28;19929;-64
2021/05/13 16:30:24;;;;;;;;;;;;;;;;;;5042763;28;20071;-63
2021/05/13 16:32:51;;;;;;;;;;;;;;;;;;5042730;28;19952;-67
2021/05/13 16:35:17;;;;;;;;;;;;;;;;;;5045317;28;19924;-66
2021/05/13 16:37:44;;;;;;;;;;;;;;;;;;5041994;28;19968;-67
2021/05/13 16:40:10;;;;;;;;;;;;;;;;;;5045842;28;19928;-66
2021/05/13 16:42:37;;;;;;;;;;;;;;;;;;5039207;28;19929;-66
2021/05/13 16:45:03;;;;;;;;;;;;;;;;;;5040907;28;19925;-66